AirNav   Free Bose QuietComfort 20
 
 1403 users online  

69MI Sparrow Clinton Hospital Heliport
St Johns, Michigan, USA

GOING TO ST JOHNS?


FAA INFORMATION EFFECTIVE 05 DECEMBER 2019

Location

FAA Identifier: 69MI
Lat/Long: 42-59-35.3900N 084-33-13.5000W
42-59.589833N 084-33.225000W
42.9931639,-84.5537500
(estimated)
Elevation: 776 ft. / 237 m (estimated)
From city: 1 mile SE of ST JOHNS, MI
Time zone: UTC -5 (UTC -4 during Daylight Saving Time)
Zip code: 48879

Heliport Operations

Heliport use: Private use. Permission required prior to landing
Activation date: 11/2017
Control tower: no
ARTCC: CLEVELAND CENTER
FSS: LANSING FLIGHT SERVICE STATION
Attendance: 
Segmented circle: no

Heliport Communications

WX ASOS at LAN (13 nm S): 119.75 (517-908-8494)
WX AWOS-3 at RNP (18 nm E): 118.025 (989-729-2967)

Nearby radio navigation aids

VOR radial/distance  VOR name  Freq  Var
FNTr279/35.4FLINT VORTAC116.9006W
MBSr216/38.4SAGINAW VOR/DME112.9003W
MOPr173/38.6MOUNT PLEASANT VOR/DME110.6005W

Heliport Services

Runway Information

Helipad H1

Dimensions: 43 x 43 ft. / 13 x 13 m
Surface: asphalt, in good condition
Latitude: 42-59.589833N
Longitude: 084-33.225000W
Elevation: 776.0 ft.
Traffic pattern: leftleft

Heliport Ownership and Management from official FAA records

Ownership: Privately-owned
Owner: SPARROW CLINTON HOSPITAL
805 S. OAKLAND STREET
ST JOHNS, MI 48879
Phone (989) 227-3400
Manager: GREGORY HARRISON
SPARROW CLINTON HOSPITAL, 805 S. OAKLAND
ST JOHNS, MI 48879
Phone (989) 227-3400

Additional Remarks

FOR CD CTC CLEVELAND ARTCC AT 440-774-0490.

Instrument Procedures

There are no published instrument procedures at 69MI.

Some nearby airports with instrument procedures:

KLAN - Capital Region International Airport (13 nm S)
4D0 - Abrams Municipal Airport (15 nm SW)
KRNP - Owosso Community Airport (18 nm E)
KAMN - Gratiot Community Airport (21 nm N)
Y70 - Ionia County Airport (22 nm W)
 
Loc | Ops | Rwys | IFR | FBO | Links
Com | Nav | Svcs | Stats | Notes
Aerial photo
No photo
 
Airport distance calculator
Flying to Sparrow Clinton Hospital Heliport? Find the distance to fly.

From to 69MI

Sunrise and sunset
Times for 09-Dec-2019
 Local
(UTC-5)
 Zulu
(UTC)
Morning civil twilight07:2712:27
Sunrise07:5912:59
Sunset17:0222:02
Evening civil twilight17:3522:35

Current date and time
Zulu (UTC)  09-Dec-2019 18:31:43
Local (UTC-5)  09-Dec-2019 13:31:43
 
METAR
KLAN 
13nm S 
091753Z 22012KT 5SM -RA BR BKN009 OVC012 09/07 A2944 RMK AO2 CIG 007V010 SLP971 P0002 60033 T00940072 10094 20078 56036
KRNP 
18nm E 
091816Z AUTO 20008KT 3SM DZ SCT009 OVC015 10/09 A2941 RMK AO2 T01040091
KAMN 
20nm N 
091815Z AUTO 22010G16KT 10SM -RA SCT007 BKN012 OVC023 09/08 A2940 RMK AO2 T00900077
TAF
KLAN 
13nm S 
091753Z 0918/1018 23012G22KT 5SM -RA OVC007 FM092200 24012G22KT 6SM -RA OVC006 FM100000 25020G30KT 5SM -RA BR OVC007 FM100300 27020G30KT 5SM -RASN BR OVC009 FM100600 28014G24KT 6SM -SHSN OVC015 FM101200 28012G22KT 6SM -SHSN OVC025
NOTAMs
Click for the latest NOTAMs
NOTAMs are issued by the DoD/FAA and will open in a separate window not controlled by AirNav.

 

 
 

Would you like to see your business listed on this page?

 If your business provides an interesting product or service to pilots, flight crews, aircraft, or users of the Sparrow Clinton Hospital Heliport, you should consider listing it here.  To start the listing process, click on the button below
 
Add a business
 

Other Pages about Sparrow Clinton Hospital Heliport

Update a link
 
Copyright © AirNav, LLC. All rights reserved. Privacy Policy  Contact